Santurtzi, Spain
Current Conditions -  °F | °C
As of 1:00 PM on Wednesday 28 Jan 2015 (Local Time) from LEBB Reporting Station
Broken Clouds Broken Clouds  
Wind Chill: 54°   Ceiling: 3200
Heat Index: 54°   Visibility: 6mi
Dew Point: 46°   Wind: 1mph
Humidity: 77%   Direction: NA
Pressure: 30.3"   Gusts: NA
Location:  43.33°N, 3.03°W
Report Text: LEBB 281200Z VRB01KT 9999 SCT020 BKN032 12/08 Q1026 NOSIG
Loading
Personal Weather Stations






























Interactive Weather Map New forecast layout! Learn more

10-Day Weather Forecast

Advertisements
Track Severe Weather on mobile